Time;durP1;ratioP1;P1;durP2;ratioP2;P2;SDS_P1;SDS_P2;PMS_P1;PMS_P2;Temp;Humidity;BMP_temperature;BMP_pressure;BME280_temperature;BME280_humidity;BME280_pressure;Samples;Min_cycle;Max_cycle;Signal;HPM_P1;HPM_P2
2023/07/27 00:02:14;;;;;;;8.98;6.53;;;;;;;26.11;60.38;98737.00;5080220;28;20044;-62
2023/07/27 00:04:39;;;;;;;12.00;7.28;;;;;;;26.06;60.64;98748.69;5079647;28;20046;-62
2023/07/27 00:07:05;;;;;;;10.02;6.38;;;;;;;26.06;60.07;98746.00;5079216;28;20028;-62
2023/07/27 00:09:30;;;;;;;9.82;7.32;;;;;;;26.04;59.60;98748.19;5078914;28;20111;-62
2023/07/27 00:11:56;;;;;;;11.70;6.88;;;;;;;26.04;58.83;98750.09;5079340;28;20028;-62
2023/07/27 00:14:21;;;;;;;8.35;6.50;;;;;;;26.04;59.77;98750.91;5079199;28;20036;-62
2023/07/27 00:16:47;;;;;;;8.88;6.68;;;;;;;26.09;59.20;98745.41;5079537;28;20041;-62
2023/07/27 00:19:12;;;;;;;9.63;6.28;;;;;;;26.11;59.08;98757.88;5079206;28;20043;-63
2023/07/27 00:21:38;;;;;;;9.05;6.50;;;;;;;26.12;58.69;98751.38;5079668;28;20071;-62
2023/07/27 00:24:03;;;;;;;10.23;6.82;;;;;;;26.11;58.07;98752.47;5079946;28;20075;-62
2023/07/27 00:26:29;;;;;;;9.18;7.25;;;;;;;26.07;58.58;98755.75;5079106;28;20041;-62
2023/07/27 00:28:54;;;;;;;9.48;7.15;;;;;;;26.09;57.97;98753.56;5079522;28;20363;-63
2023/07/27 00:31:20;;;;;;;12.15;7.63;;;;;;;26.13;58.46;98758.41;5080001;28;20266;-62
2023/07/27 00:33:45;;;;;;;8.63;6.68;;;;;;;26.03;57.98;98754.69;5080404;28;20051;-62
2023/07/27 00:36:10;;;;;;;9.65;7.32;;;;;;;25.99;57.76;98753.63;5079217;28;20040;-63
2023/07/27 00:38:36;;;;;;;9.98;7.05;;;;;;;25.90;57.89;98755.34;5079126;28;20080;-63
2023/07/27 00:41:01;;;;;;;9.35;6.72;;;;;;;25.86;57.46;98754.31;5078971;28;20073;-63
2023/07/27 00:43:27;;;;;;;9.20;6.63;;;;;;;25.80;58.02;98751.91;5079519;28;20040;-62
2023/07/27 00:45:53;;;;;;;10.35;7.10;;;;;;;25.77;57.49;98756.81;5079640;28;20086;-62
2023/07/27 00:48:20;;;;;;;8.77;6.20;;;;;;;25.65;58.15;98750.97;5079129;28;20264;-63
2023/07/27 00:50:46;;;;;;;8.10;6.00;;;;;;;25.65;57.95;98761.81;5079667;28;20059;-63
2023/07/27 00:53:13;;;;;;;10.18;6.28;;;;;;;25.65;58.16;98753.69;5079180;28;20029;-62
2023/07/27 00:55:39;;;;;;;9.23;6.43;;;;;;;25.58;58.83;98758.59;5078865;28;20048;-62
2023/07/27 00:58:04;;;;;;;10.60;7.07;;;;;;;25.55;58.34;98755.63;5078339;28;20044;-62
2023/07/27 01:00:30;;;;;;;8.93;6.72;;;;;;;25.52;58.55;98754.31;5078414;28;20036;-63
2023/07/27 01:02:56;;;;;;;10.13;7.25;;;;;;;25.54;59.11;98751.31;5078759;28;20043;-62
2023/07/27 01:05:22;;;;;;;9.73;7.22;;;;;;;25.50;58.84;98767.31;5078940;28;20037;-62
2023/07/27 01:07:48;;;;;;;9.20;7.53;;;;;;;25.53;59.19;98758.63;5079455;28;20033;-62
2023/07/27 01:10:13;;;;;;;8.90;7.65;;;;;;;25.55;59.00;98755.63;5078799;28;20372;-62
2023/07/27 01:12:54;;;;;;;11.13;8.02;;;;;;;25.51;59.23;98768.94;5078078;28;20047;-62
2023/07/27 01:15:25;;;;;;;10.38;7.93;;;;;;;25.51;59.26;98768.94;5078176;28;20377;-63
2023/07/27 01:18:07;;;;;;;13.05;8.52;;;;;;;25.58;59.12;98779.47;5079251;28;20082;-62
2023/07/27 01:20:32;;;;;;;10.90;6.95;;;;;;;25.50;59.13;98770.03;5079258;28;20040;-62
2023/07/27 01:23:19;;;;;;;12.60;6.75;;;;;;;25.58;58.59;98769.44;5078933;28;20032;-62
2023/07/27 01:26:12;;;;;;;9.30;6.68;;;;;;;25.66;58.56;98755.28;5078669;28;20354;-63
2023/07/27 01:28:59;;;;;;;10.23;6.95;;;;;;;25.65;58.26;98760.97;5078681;28;20039;-62
2023/07/27 01:31:32;;;;;;;12.20;6.95;;;;;;;25.66;58.56;98762.63;5078615;28;20044;-62
2023/07/27 01:34:01;;;;;;;11.00;7.47;;;;;;;25.49;58.89;98757.56;5078627;28;20025;-62
2023/07/27 01:36:32;;;;;;;10.05;6.55;;;;;;;25.57;59.09;98764.28;5078635;28;20044;-63
2023/07/27 01:39:02;;;;;;;8.90;6.25;;;;;;;25.66;58.26;98762.63;5078290;28;20033;-62
2023/07/27 01:41:29;;;;;;;10.50;6.63;;;;;;;25.75;58.49;98767.16;5078402;28;20055;-62
2023/07/27 01:43:56;;;;;;;9.70;6.68;;;;;;;25.67;58.11;98762.34;5078248;28;20366;-62
2023/07/27 01:46:24;;;;;;;11.98;6.75;;;;;;;25.50;59.01;98767.31;5078548;28;20040;-62
2023/07/27 01:48:51;;;;;;;10.52;6.68;;;;;;;25.51;58.87;98778.97;5077871;28;20364;-62
2023/07/27 01:51:19;;;;;;;10.20;6.60;;;;;;;25.51;58.19;98784.41;5077807;28;20059;-62
2023/07/27 01:53:45;;;;;;;10.13;6.60;;;;;;;25.51;58.55;98789.81;5078388;28;20036;-63
2023/07/27 01:56:13;;;;;;;8.30;6.47;;;;;;;25.48;58.53;98793.09;5078097;28;20044;-63
2023/07/27 01:58:39;;;;;;;9.65;6.45;;;;;;;25.49;58.27;98792.81;5077539;28;20072;-62
2023/07/27 02:01:06;;;;;;;10.93;7.03;;;;;;;25.46;58.72;98796.09;5078708;28;20040;-62
2023/07/27 02:03:32;;;;;;;10.15;6.68;;;;;;;25.58;58.39;98791.13;5078827;28;20049;-62
2023/07/27 02:05:57;;;;;;;8.98;6.32;;;;;;;25.65;58.25;98801.63;5078184;28;20028;-62
2023/07/27 02:08:23;;;;;;;9.20;6.22;;;;;;;25.60;58.22;98801.69;5077919;28;20215;-62
2023/07/27 02:10:54;;;;;;;9.43;6.50;;;;;;;25.50;58.60;98809.88;5078078;28;20040;-62
2023/07/27 02:13:41;;;;;;;8.35;6.15;;;;;;;25.48;58.54;98806.66;5078147;28;20106;-63
2023/07/27 02:16:27;;;;;;;12.00;6.55;;;;;;;25.38;58.75;98808.34;5077946;28;20048;-62
2023/07/27 02:18:54;;;;;;;8.68;6.10;;;;;;;25.30;59.40;98805.41;5078317;28;20045;-62
2023/07/27 02:21:21;;;;;;;8.77;6.60;;;;;;;25.22;59.55;98811.41;5078200;28;20044;-62
2023/07/27 02:23:48;;;;;;;7.72;6.15;;;;;;;25.10;59.76;98812.56;5079024;28;20037;-63
2023/07/27 02:26:14;;;;;;;9.27;7.10;;;;;;;25.11;60.10;98825.03;5081550;28;20040;-62
2023/07/27 02:28:40;;;;;;;9.82;6.53;;;;;;;25.10;60.24;98818.00;5082431;28;20110;-63
2023/07/27 02:31:05;;;;;;;10.38;6.65;;;;;;;25.06;60.26;98816.94;5081876;28;20036;-62
2023/07/27 02:33:31;;;;;;;8.10;6.50;;;;;;;24.96;60.31;98819.63;5082266;28;20041;-62
2023/07/27 02:35:56;;;;;;;11.23;7.43;;;;;;;24.88;60.71;98819.41;5081258;28;20626;-62
2023/07/27 02:38:22;;;;;;;10.15;6.25;;;;;;;24.87;60.92;98825.91;5081106;28;20047;-62
2023/07/27 02:40:47;;;;;;;9.80;6.70;;;;;;;24.88;60.98;98838.34;5081515;28;20226;-63
2023/07/27 02:43:13;;;;;;;7.90;6.28;;;;;;;24.87;61.17;98842.16;5081307;28;20050;-63
2023/07/27 02:45:38;;;;;;;8.82;6.30;;;;;;;24.82;60.67;98851.91;5081074;28;20199;-62
2023/07/27 02:48:03;;;;;;;8.60;6.35;;;;;;;24.81;61.16;98854.88;5081005;28;20044;-62
2023/07/27 02:50:29;;;;;;;10.02;6.57;;;;;;;24.78;61.20;98856.25;5081425;28;20279;-62
2023/07/27 02:52:54;;;;;;;8.05;6.50;;;;;;;24.75;61.40;98861.41;5080882;28;20040;-63
2023/07/27 02:55:20;;;;;;;9.27;6.63;;;;;;;24.73;61.70;98861.69;5081231;28;20368;-62
2023/07/27 02:57:45;;;;;;;10.25;6.07;;;;;;;24.75;61.29;98870.34;5080272;28;20040;-62
2023/07/27 03:00:11;;;;;;;7.90;6.38;;;;;;;24.77;61.67;98886.31;5079863;28;20032;-63
2023/07/27 03:02:36;;;;;;;8.82;6.40;;;;;;;24.77;61.68;98883.59;5079777;28;20037;-62
2023/07/27 03:05:06;;;;;;;8.20;6.03;;;;;;;24.72;61.81;98886.31;5080357;28;20032;-62
2023/07/27 03:07:32;;;;;;;8.98;6.25;;;;;;;24.77;61.77;98900.66;5079598;28;20342;-63
2023/07/27 03:09:57;;;;;;;8.63;6.32;;;;;;;24.70;61.79;98891.19;5079653;28;20117;-62
2023/07/27 03:12:22;;;;;;;7.65;6.18;;;;;;;24.71;61.88;98898.25;5079247;28;20068;-62
2023/07/27 03:14:48;;;;;;;9.45;6.72;;;;;;;24.57;62.35;98878.25;5079603;28;20055;-62
2023/07/27 03:17:13;;;;;;;12.07;7.30;;;;;;;24.53;62.81;98888.81;5079295;28;20299;-62
2023/07/27 03:19:39;;;;;;;9.40;6.63;;;;;;;24.58;62.71;98891.50;5079069;28;20349;-62
2023/07/27 03:22:05;;;;;;;9.60;6.38;;;;;;;24.54;62.91;98892.31;5079019;28;20039;-62
2023/07/27 03:24:30;;;;;;;11.05;6.45;;;;;;;24.47;63.39;98893.41;5078861;28;20055;-62
2023/07/27 03:26:56;;;;;;;9.80;7.07;;;;;;;24.41;63.80;98899.13;5078274;28;20048;-62
2023/07/27 03:29:21;;;;;;;8.77;7.88;;;;;;;24.39;64.17;98903.97;5078811;28;20154;-62
2023/07/27 03:31:47;;;;;;;8.40;6.55;;;;;;;24.46;63.69;98899.91;5079063;28;20049;-62
2023/07/27 03:34:12;;;;;;;10.98;6.72;;;;;;;24.50;63.54;98909.09;5078728;28;20051;-63
2023/07/27 03:36:38;;;;;;;8.88;7.00;;;;;;;24.55;63.77;98902.06;5078644;28;20090;-62
2023/07/27 03:39:03;;;;;;;9.85;7.25;;;;;;;24.57;63.90;98911.53;5078676;28;20036;-62
2023/07/27 03:41:28;;;;;;;9.05;7.40;;;;;;;24.60;63.51;98919.09;5078713;28;20040;-63
2023/07/27 03:43:54;;;;;;;11.77;7.45;;;;;;;24.59;63.24;98917.50;5079000;28;20031;-62
2023/07/27 03:46:19;;;;;;;8.88;6.65;;;;;;;24.58;62.78;98917.75;5079157;28;20037;-63
2023/07/27 03:48:48;;;;;;;11.10;6.45;;;;;;;24.54;62.40;98919.38;5079863;28;20036;-62
2023/07/27 03:51:13;;;;;;;8.18;5.20;;;;;;;24.47;61.12;98925.88;5079036;28;20384;-63
2023/07/27 03:53:39;;;;;;;6.25;4.95;;;;;;;24.47;60.36;98933.19;5079330;28;20028;-62
2023/07/27 03:56:05;;;;;;;6.43;4.38;;;;;;;24.53;58.62;98942.94;5079031;28;20264;-62
2023/07/27 03:58:30;;;;;;;4.80;4.25;;;;;;;24.55;57.74;98939.97;5038706;28;1151600;-62
2023/07/27 04:00:56;;;;;;;6.85;4.32;;;;;;;24.47;57.37;98952.13;5080612;28;20041;-62
2023/07/27 04:03:22;;;;;;;5.03;3.45;;;;;;;24.37;57.73;98962.97;5079977;28;20177;-62
2023/07/27 04:05:48;;;;;;;6.78;3.88;;;;;;;24.45;56.79;98955.13;5080659;28;20037;-62
2023/07/27 04:08:13;;;;;;;5.70;3.28;;;;;;;24.40;56.23;98957.84;5079691;28;20047;-62
2023/07/27 04:10:40;;;;;;;4.40;3.05;;;;;;;24.33;56.21;98954.59;5080287;28;20040;-62
2023/07/27 04:13:05;;;;;;;5.57;3.28;;;;;;;24.32;55.59;98961.06;5080285;28;20047;-62
2023/07/27 04:15:31;;;;;;;4.45;2.78;;;;;;;24.20;55.52;98963.22;5080365;28;20062;-62
2023/07/27 04:17:56;;;;;;;2.90;2.55;;;;;;;24.22;55.53;98966.44;5080637;28;20048;-62
2023/07/27 04:20:22;;;;;;;4.13;2.95;;;;;;;24.09;55.24;98962.38;5080667;28;20044;-62
2023/07/27 04:22:47;;;;;;;6.38;2.83;;;;;;;24.26;54.74;98982.97;5079365;28;20044;-62
2023/07/27 04:25:12;;;;;;;4.30;2.92;;;;;;;24.32;54.88;98987.31;5079781;28;20041;-63
2023/07/27 04:27:38;;;;;;;3.75;2.30;;;;;;;24.38;54.28;98989.75;5079655;28;20020;-62
2023/07/27 04:30:04;;;;;;;3.75;2.47;;;;;;;24.33;54.42;98980.81;5079148;28;20326;-62
2023/07/27 04:32:29;;;;;;;3.00;2.75;;;;;;;24.36;54.79;98985.69;5079775;28;20064;-62
2023/07/27 04:34:55;;;;;;;4.90;2.72;;;;;;;24.44;54.91;99001.41;5079024;28;20322;-62
2023/07/27 04:37:20;;;;;;;3.60;2.95;;;;;;;24.44;55.18;99004.91;5078697;28;20025;-63
2023/07/27 04:39:46;;;;;;;6.20;3.10;;;;;;;24.50;55.19;99008.44;5078984;28;20319;-62
2023/07/27 04:42:12;;;;;;;3.53;3.03;;;;;;;24.40;55.08;99022.78;5078582;28;20040;-63
2023/07/27 04:44:37;;;;;;;4.07;2.70;;;;;;;24.35;54.75;99011.13;5078824;28;20048;-62
2023/07/27 04:47:03;;;;;;;3.90;2.92;;;;;;;24.13;54.71;99011.34;5077873;28;20043;-62
2023/07/27 04:49:28;;;;;;;4.28;3.20;;;;;;;24.22;54.17;99017.84;5079088;28;20825;-62
2023/07/27 04:51:54;;;;;;;3.75;3.15;;;;;;;24.13;54.25;99020.28;5079247;28;20040;-63
2023/07/27 04:54:20;;;;;;;3.40;3.10;;;;;;;24.19;54.14;99023.81;5078196;28;20032;-62
2023/07/27 04:56:45;;;;;;;4.50;3.30;;;;;;;24.19;53.70;99029.22;5078259;28;20032;-62
2023/07/27 04:59:11;;;;;;;3.38;3.08;;;;;;;24.23;53.51;99024.88;5078181;28;20044;-62
2023/07/27 05:01:36;;;;;;;6.32;3.15;;;;;;;24.15;53.97;99022.72;5078453;28;20338;-62
2023/07/27 05:04:01;;;;;;;5.05;3.22;;;;;;;24.26;53.52;99018.13;5078324;28;20028;-62
2023/07/27 05:06:27;;;;;;;4.75;3.40;;;;;;;24.50;53.30;99030.91;5078048;28;20044;-62
2023/07/27 05:08:52;;;;;;;5.30;4.05;;;;;;;24.60;52.79;99026.56;5078150;28;20037;-62
2023/07/27 05:11:18;;;;;;;4.35;3.17;;;;;;;24.63;52.23;99026.84;5078404;28;20065;-62
2023/07/27 05:13:43;;;;;;;4.18;3.70;;;;;;;24.70;52.59;99030.09;5078575;28;20081;-62
2023/07/27 05:16:09;;;;;;;4.03;3.60;;;;;;;24.93;51.38;99038.72;5078872;28;20044;-62
2023/07/27 05:18:34;;;;;;;3.72;3.42;;;;;;;25.11;51.16;99035.50;5078769;28;20052;-62
2023/07/27 05:21:00;;;;;;;4.03;3.63;;;;;;;25.24;50.06;99026.00;5078393;28;20032;-62
2023/07/27 05:23:26;;;;;;;4.78;4.00;;;;;;;25.14;50.14;99043.91;5076823;28;20043;-63
2023/07/27 05:25:52;;;;;;;5.25;4.32;;;;;;;25.07;51.41;99035.25;5075581;28;20036;-62
2023/07/27 05:28:17;;;;;;;3.90;3.50;;;;;;;25.16;50.66;99051.75;5074360;28;20039;-63
2023/07/27 05:30:43;;;;;;;5.55;4.10;;;;;;;25.12;50.81;99053.38;5072157;28;20043;-63
2023/07/27 05:33:08;;;;;;;4.43;4.03;;;;;;;24.98;50.54;99061.25;5064090;28;20090;-63
2023/07/27 05:35:34;;;;;;;5.72;4.43;;;;;;;24.52;51.18;99073.94;5073694;28;20040;-62
2023/07/27 05:37:59;;;;;;;6.95;4.85;;;;;;;24.01;52.63;99072.97;5057445;28;20337;-62
2023/07/27 05:40:25;;;;;;;7.07;4.47;;;;;;;24.03;52.73;99074.34;5057426;28;20037;-62
2023/07/27 05:42:50;;;;;;;4.50;4.00;;;;;;;24.31;53.20;99086.63;5072916;28;20036;-63
2023/07/27 05:45:16;;;;;;;4.72;4.00;;;;;;;24.44;52.63;99079.88;5073571;28;20033;-62
2023/07/27 05:47:41;;;;;;;7.25;3.90;;;;;;;24.48;51.51;99080.97;5076795;28;20036;-62
2023/07/27 05:50:08;;;;;;;5.63;4.55;;;;;;;24.33;52.92;99086.34;5076585;28;20039;-63
2023/07/27 05:52:33;;;;;;;6.15;4.68;;;;;;;24.33;51.54;99081.75;5077474;28;20074;-62
2023/07/27 05:54:59;;;;;;;5.90;4.55;;;;;;;24.47;51.98;99082.84;5077155;28;20048;-62
2023/07/27 05:57:24;;;;;;;7.00;6.38;;;;;;;24.24;51.29;99077.91;5076999;28;20039;-62
2023/07/27 05:59:50;;;;;;;7.88;7.03;;;;;;;24.13;51.86;99097.91;5078612;28;20448;-63
2023/07/27 06:02:15;;;;;;;8.77;4.88;;;;;;;24.30;51.15;99093.09;5077995;28;20056;-62
2023/07/27 06:04:41;;;;;;;6.68;5.00;;;;;;;24.64;50.84;99087.19;5078536;28;21029;-63
2023/07/27 06:07:06;;;;;;;5.75;4.75;;;;;;;24.74;49.52;99089.91;5077952;28;20051;-62
2023/07/27 06:09:32;;;;;;;6.28;4.95;;;;;;;25.03;49.66;99084.81;5078214;28;20342;-63
2023/07/27 06:11:57;;;;;;;5.43;4.88;;;;;;;25.36;49.09;99092.34;5077492;28;20054;-62
2023/07/27 06:14:23;;;;;;;6.55;4.43;;;;;;;25.45;47.41;99089.88;5059808;28;20038;-62
2023/07/27 06:16:49;;;;;;;7.15;6.07;;;;;;;25.51;48.01;99099.63;5078615;28;20064;-62
2023/07/27 06:19:14;;;;;;;6.32;4.50;;;;;;;25.53;47.77;99100.16;5078467;28;20037;-63
2023/07/27 06:21:40;;;;;;;4.40;4.00;;;;;;;25.46;47.64;99105.88;5077987;28;20025;-62
2023/07/27 06:24:05;;;;;;;4.75;4.35;;;;;;;25.53;47.28;99102.06;5077636;28;20041;-63
2023/07/27 06:26:31;;;;;;;4.80;4.15;;;;;;;25.31;46.91;99096.97;5077893;28;20357;-62
2023/07/27 06:28:57;;;;;;;4.40;4.00;;;;;;;25.27;46.97;99099.41;5078038;28;20311;-62
2023/07/27 06:31:23;;;;;;;4.57;4.18;;;;;;;25.19;47.71;99097.25;5078182;28;20047;-62
2023/07/27 06:33:48;;;;;;;4.53;4.07;;;;;;;25.22;47.45;99093.19;5078124;28;20037;-62
2023/07/27 06:36:14;;;;;;;8.90;3.75;;;;;;;25.20;46.41;99093.47;5078138;28;20045;-62
2023/07/27 06:38:40;;;;;;;3.67;3.30;;;;;;;25.28;46.63;99090.19;5078146;28;20036;-62
2023/07/27 06:41:05;;;;;;;5.18;3.60;;;;;;;25.45;45.58;99082.56;5078220;28;20043;-62
2023/07/27 06:43:31;;;;;;;4.18;3.40;;;;;;;25.41;44.90;99081.50;5077820;28;20457;-61
2023/07/27 06:45:56;;;;;;;3.90;3.60;;;;;;;25.25;46.49;99084.50;5078419;28;20040;-63
2023/07/27 06:48:22;;;;;;;5.55;3.95;;;;;;;25.00;45.94;99085.38;5078139;28;20353;-62
2023/07/27 06:50:47;;;;;;;5.97;3.30;;;;;;;24.71;46.72;99075.03;5077262;28;20046;-62
2023/07/27 06:53:12;;;;;;;3.70;3.30;;;;;;;24.89;46.20;99079.06;5076683;28;20040;-62
2023/07/27 06:55:38;;;;;;;5.72;3.60;;;;;;;24.94;45.41;99079.06;5077229;28;20048;-63
2023/07/27 06:58:04;;;;;;;10.02;3.70;;;;;;;25.10;44.82;99075.31;5076272;28;20281;-62
2023/07/27 07:00:31;;;;;;;5.28;3.38;;;;;;;25.13;44.49;99074.78;5077643;28;20347;-62
2023/07/27 07:02:57;;;;;;;6.28;3.10;;;;;;;25.29;44.11;99082.88;5077598;28;20028;-63
2023/07/27 07:05:23;;;;;;;5.55;2.97;;;;;;;25.36;43.67;99078.00;5077596;28;20036;-63
2023/07/27 07:07:48;;;;;;;7.07;3.67;;;;;;;25.07;43.41;99075.06;5077822;28;20103;-62
2023/07/27 07:10:14;;;;;;;5.35;3.35;;;;;;;25.24;44.06;99074.75;5079500;28;20251;-63
2023/07/27 07:12:39;;;;;;;3.08;2.67;;;;;;;25.55;42.33;99064.66;5081565;28;20040;-62
2023/07/27 07:15:06;;;;;;;5.65;2.90;;;;;;;25.76;41.55;99064.31;5080992;28;20245;-62
2023/07/27 07:17:31;;;;;;;5.10;2.80;;;;;;;25.98;41.23;99082.94;5081330;28;20236;-63
2023/07/27 07:19:57;;;;;;;6.22;2.50;;;;;;;26.43;40.15;99074.88;5081326;28;20044;-63
2023/07/27 07:22:22;;;;;;;3.72;2.42;;;;;;;26.61;39.79;99076.91;5080632;28;20039;-62
2023/07/27 07:24:48;;;;;;;3.30;2.80;;;;;;;26.86;39.62;99067.75;5080864;28;20059;-62
2023/07/27 07:27:13;;;;;;;5.00;2.70;;;;;;;26.91;38.63;99067.69;5081137;28;20418;-62
2023/07/27 07:29:39;;;;;;;7.63;2.60;;;;;;;26.72;39.02;99067.59;5081581;28;20029;-62
2023/07/27 07:32:04;;;;;;;3.33;2.30;;;;;;;26.26;38.68;99067.09;5080429;28;20039;-62
2023/07/27 07:34:33;;;;;;;4.22;2.30;;;;;;;25.98;39.47;99066.66;5080963;28;20044;-62
2023/07/27 07:37:00;;;;;;;5.55;3.15;;;;;;;26.18;39.17;99071.19;5080839;28;20028;-62
2023/07/27 07:39:26;;;;;;;6.50;3.10;;;;;;;26.61;38.55;99079.63;5080857;28;20086;-62
2023/07/27 07:41:51;;;;;;;4.18;2.58;;;;;;;26.96;38.37;99076.63;5081228;28;20044;-62
2023/07/27 07:44:17;;;;;;;2.53;2.33;;;;;;;27.40;36.50;99069.47;5080931;28;20045;-62
2023/07/27 07:46:42;;;;;;;4.25;3.17;;;;;;;27.44;35.75;99076.75;5081239;28;20342;-63
2023/07/27 07:49:08;;;;;;;5.68;2.80;;;;;;;27.60;35.89;99078.22;5080770;28;20048;-63
2023/07/27 07:51:33;;;;;;;3.70;2.67;;;;;;;27.95;35.80;99089.78;5080589;28;20075;-62
2023/07/27 07:53:58;;;;;;;5.20;2.90;;;;;;;27.79;34.37;99082.91;5080680;28;20078;-62
2023/07/27 07:56:24;;;;;;;5.07;2.70;;;;;;;27.42;34.78;99083.56;5080165;28;20047;-62
2023/07/27 07:58:49;;;;;;;5.07;2.83;;;;;;;26.93;35.46;99090.78;5080465;28;20052;-62
2023/07/27 08:01:15;;;;;;;7.50;3.28;;;;;;;26.89;36.05;99083.47;5078845;28;20028;-62
2023/07/27 08:03:40;;;;;;;3.60;2.22;;;;;;;27.28;36.56;99086.16;5077876;28;20035;-63
2023/07/27 08:06:07;;;;;;;7.18;2.50;;;;;;;27.60;35.08;99071.94;5079943;28;20031;-62
2023/07/27 08:08:33;;;;;;;4.75;2.47;;;;;;;27.60;34.81;99063.78;5080507;28;20037;-62
2023/07/27 08:11:03;;;;;;;4.40;2.60;;;;;;;27.06;35.20;99083.13;5079464;28;20207;-63
2023/07/27 08:13:32;;;;;;;6.00;2.92;;;;;;;26.54;36.30;99101.66;5080082;28;20040;-62
2023/07/27 08:15:57;;;;;;;6.00;2.47;;;;;;;26.09;36.88;99097.31;5079143;28;20040;-62
2023/07/27 08:18:23;;;;;;;5.75;2.80;;;;;;;25.99;36.82;99111.69;5079477;28;20048;-62
2023/07/27 08:20:59;;;;;;;5.95;3.05;;;;;;;25.87;37.27;99116.63;5078639;28;20279;-62
2023/07/27 08:23:25;;;;;;;2.97;2.20;;;;;;;25.70;37.33;99114.25;5079357;28;20036;-63
2023/07/27 08:25:53;;;;;;;7.10;2.50;;;;;;;25.56;37.65;99136.75;5078831;28;20073;-62
2023/07/27 08:28:19;;;;;;;3.95;2.53;;;;;;;25.38;37.26;99133.53;5079430;28;20045;-62
2023/07/27 08:30:45;;;;;;;7.72;2.50;;;;;;;25.23;37.97;99151.72;5079379;28;20040;-62
2023/07/27 08:33:12;;;;;;;4.63;2.10;;;;;;;25.12;37.03;99151.72;5079365;28;20340;-62
2023/07/27 08:35:38;;;;;;;5.00;2.30;;;;;;;24.99;36.88;99135.19;5079237;28;20095;-62
2023/07/27 08:38:03;;;;;;;4.55;2.03;;;;;;;24.89;37.30;99137.84;5078435;28;20513;-62
2023/07/27 08:40:29;;;;;;;2.85;2.63;;;;;;;24.83;37.44;99134.31;5078826;28;20318;-62
2023/07/27 08:42:55;;;;;;;3.08;1.90;;;;;;;24.91;37.28;99116.72;5079014;28;21524;-62
2023/07/27 08:45:22;;;;;;;3.08;2.33;;;;;;;24.82;37.36;99119.16;5079204;28;20044;-62
2023/07/27 08:47:48;;;;;;;3.70;2.67;;;;;;;24.73;37.34;99116.16;5079075;28;20024;-62
2023/07/27 08:50:14;;;;;;;2.67;2.20;;;;;;;24.93;37.17;99138.94;5079308;28;20227;-62
2023/07/27 08:52:40;;;;;;;5.45;2.25;;;;;;;24.90;37.11;99145.69;5078286;28;20051;-62
2023/07/27 08:55:05;;;;;;;2.47;2.05;;;;;;;24.79;37.37;99147.59;5078344;28;20326;-62
2023/07/27 08:57:31;;;;;;;3.00;1.98;;;;;;;24.46;37.31;99145.38;5076850;28;20063;-61
2023/07/27 08:59:57;;;;;;;2.53;2.10;;;;;;;24.49;38.05;99161.06;5074348;28;20211;-63
2023/07/27 09:02:22;;;;;;;4.20;2.35;;;;;;;24.42;37.88;99150.50;5074814;28;20078;-62
2023/07/27 09:04:48;;;;;;;3.22;1.92;;;;;;;24.45;38.25;99155.38;5070832;28;20505;-62
2023/07/27 09:07:14;;;;;;;2.72;2.50;;;;;;;24.51;38.74;99154.31;5074870;28;20026;-62
2023/07/27 09:09:40;;;;;;;4.00;2.30;;;;;;;24.45;38.63;99152.66;5078109;28;20485;-62
2023/07/27 09:12:07;;;;;;;2.28;2.08;;;;;;;24.23;39.05;99146.63;5075938;28;20098;-62
2023/07/27 09:14:39;;;;;;;3.58;2.35;;;;;;;24.25;40.45;99136.34;5074515;28;20048;-62
2023/07/27 09:17:07;;;;;;;2.60;2.40;;;;;;;23.89;41.26;99141.59;5071318;28;20051;-62
2023/07/27 09:19:36;;;;;;;5.55;2.63;;;;;;;23.95;41.43;99150.56;5075515;28;20214;-61
2023/07/27 09:22:02;;;;;;;3.55;2.55;;;;;;;23.94;40.48;99151.66;5075015;28;20384;-62
2023/07/27 09:24:31;;;;;;;2.90;2.28;;;;;;;23.95;39.71;99157.88;5073775;28;20048;-62
2023/07/27 09:26:57;;;;;;;2.92;2.30;;;;;;;24.00;40.00;99164.13;5074421;28;20052;-62
2023/07/27 09:29:23;;;;;;;4.05;2.20;;;;;;;23.94;39.60;99162.47;5074793;28;20024;-62
2023/07/27 09:31:54;;;;;;;4.32;2.47;;;;;;;24.15;39.44;99172.28;5074349;28;20110;-63
2023/07/27 09:34:21;;;;;;;2.17;2.08;;;;;;;24.18;39.79;99188.00;5074734;28;20050;-62
2023/07/27 09:36:47;;;;;;;2.33;2.10;;;;;;;24.39;39.50;99178.09;5076262;28;20036;-62
2023/07/27 09:39:15;;;;;;;3.30;2.15;;;;;;;24.70;37.47;99175.47;5074209;28;20105;-62
2023/07/27 09:41:44;;;;;;;2.75;2.55;;;;;;;24.96;36.83;99171.69;5073548;28;20032;-63
2023/07/27 09:44:18;;;;;;;3.58;1.45;;;;;;;25.07;34.83;99178.00;5072693;28;20040;-62
2023/07/27 09:46:47;;;;;;;3.20;1.77;;;;;;;25.26;34.75;99179.06;5075361;28;20032;-63
2023/07/27 09:49:13;;;;;;;2.75;2.20;;;;;;;25.53;36.80;99176.06;5076644;28;20100;-62
2023/07/27 09:51:39;;;;;;;3.05;1.80;;;;;;;25.82;36.44;99189.06;5074777;28;20338;-62
2023/07/27 09:54:05;;;;;;;2.72;1.77;;;;;;;25.87;34.27;99172.78;5074280;28;20282;-62
2023/07/27 09:56:31;;;;;;;4.32;2.58;;;;;;;26.12;34.93;99177.31;5074137;28;20350;-63
2023/07/27 09:58:57;;;;;;;1.92;1.83;;;;;;;26.40;35.45;99163.09;5073538;28;20044;-62
2023/07/27 10:01:23;;;;;;;3.00;1.70;;;;;;;26.73;33.17;99170.50;5074658;28;20105;-62
2023/07/27 10:03:48;;;;;;;2.08;1.90;;;;;;;26.81;31.74;99168.28;5074373;28;20058;-63
2023/07/27 10:06:16;;;;;;;2.00;1.80;;;;;;;26.95;32.59;99167.38;5076303;28;20101;-62
2023/07/27 10:08:42;;;;;;;4.43;1.73;;;;;;;26.88;32.33;99150.59;5074820;28;20033;-63
2023/07/27 10:11:08;;;;;;;2.72;1.40;;;;;;;27.07;32.18;99153.47;5074387;28;20032;-62
2023/07/27 10:13:39;;;;;;;4.15;1.60;;;;;;;27.20;30.57;99157.44;5074009;28;20028;-62
2023/07/27 10:16:08;;;;;;;1.55;1.45;;;;;;;27.32;30.68;99160.59;5076629;28;20047;-62
2023/07/27 10:18:39;;;;;;;1.70;1.35;;;;;;;27.20;29.34;99138.44;5076839;28;20036;-63
2023/07/27 10:21:22;;;;;;;2.30;1.38;;;;;;;27.47;29.10;99148.78;5073500;28;20040;-62
2023/07/27 10:23:59;;;;;;;1.97;1.80;;;;;;;27.64;30.63;99141.00;5074945;28;20036;-62
2023/07/27 10:26:40;;;;;;;2.92;1.90;;;;;;;27.79;30.67;99140.84;5076248;28;20041;-62
2023/07/27 10:29:17;;;;;;;2.85;1.65;;;;;;;27.89;30.01;99129.03;5074202;28;20044;-63
2023/07/27 10:31:47;;;;;;;1.80;1.70;;;;;;;27.94;30.12;99132.50;5072737;28;20100;-62
2023/07/27 10:34:16;;;;;;;2.40;2.30;;;;;;;27.92;29.79;99125.72;5073602;28;20048;-63
2023/07/27 10:36:47;;;;;;;2.00;1.70;;;;;;;28.12;31.14;99120.06;5073425;28;20400;-63
2023/07/27 10:39:17;;;;;;;1.95;1.75;;;;;;;28.32;29.87;99110.84;5072861;28;20082;-62
2023/07/27 10:42:31;;;;;;;1.83;1.73;;;;;;;28.08;29.62;99099.94;5073472;28;20398;-62
2023/07/27 10:44:58;;;;;;;2.70;1.50;;;;;;;28.34;29.87;99088.75;5037489;28;20401;-63
2023/07/27 10:47:23;;;;;;;2.58;1.40;;;;;;;28.51;29.53;99081.69;5077139;28;20040;-63
2023/07/27 10:49:50;;;;;;;3.25;2.08;;;;;;;28.61;29.31;99092.41;5077211;28;20237;-62
2023/07/27 10:52:23;;;;;;;3.42;1.60;;;;;;;28.49;28.24;99085.81;5075661;28;20037;-63
2023/07/27 10:54:49;;;;;;;1.77;1.27;;;;;;;28.49;28.43;99075.72;5077241;28;20332;-62
2023/07/27 10:57:17;;;;;;;4.25;1.77;;;;;;;28.64;27.81;99085.56;5076612;28;20639;-63
2023/07/27 10:59:46;;;;;;;2.15;1.30;;;;;;;28.70;27.11;99078.13;5077838;28;20028;-62
2023/07/27 11:02:21;;;;;;;1.65;1.33;;;;;;;28.60;27.84;99084.53;5076770;28;20064;-63
2023/07/27 11:04:52;;;;;;;1.90;1.63;;;;;;;28.71;27.59;99079.75;5073116;28;20103;-63
2023/07/27 11:07:34;;;;;;;1.88;1.60;;;;;;;28.84;27.34;99092.63;5076753;28;20067;-63
2023/07/27 11:10:10;;;;;;;4.30;1.42;;;;;;;28.95;26.65;99085.91;5076817;28;20036;-62
2023/07/27 11:12:49;;;;;;;3.55;1.38;;;;;;;29.01;27.20;99076.53;5076407;28;20126;-62
2023/07/27 11:15:22;;;;;;;2.47;1.58;;;;;;;28.98;27.35;99095.41;5075628;28;20052;-62
2023/07/27 11:17:53;;;;;;;2.50;1.30;;;;;;;28.86;26.15;99091.22;5072660;28;20032;-63
2023/07/27 11:20:20;;;;;;;1.55;1.42;;;;;;;28.71;26.58;99090.63;5076576;28;20142;-62
2023/07/27 11:22:50;;;;;;;7.18;2.67;;;;;;;28.55;27.41;99090.88;5076204;28;20055;-62
2023/07/27 11:25:15;;;;;;;2.45;1.30;;;;;;;28.80;27.90;99086.94;5076619;28;20036;-62
2023/07/27 11:27:41;;;;;;;3.00;1.50;;;;;;;28.99;27.67;99092.38;5072406;28;20083;-62
2023/07/27 11:30:12;;;;;;;2.88;2.17;;;;;;;28.92;25.89;99095.50;5076554;28;20396;-62
2023/07/27 11:32:37;;;;;;;1.83;1.30;;;;;;;28.74;24.16;99092.78;5076879;28;20044;-62